sensor_id;sensor_type;location;lat;lon;timestamp;P1;durP1;ratioP1;P2;durP2;ratioP2
17943;SDS011;9097;47.028;15.444;2022-08-21T00:00:26;1.67;;;0.30;;
17943;SDS011;9097;47.028;15.444;2022-08-21T00:03:33;0.77;;;0.47;;
17943;SDS011;9097;47.028;15.444;2022-08-21T00:06:35;0.68;;;0.38;;
17943;SDS011;9097;47.028;15.444;2022-08-21T00:09:38;0.68;;;0.43;;
17943;SDS011;9097;47.028;15.444;2022-08-21T00:12:41;0.55;;;0.45;;
17943;SDS011;9097;47.028;15.444;2022-08-21T00:15:44;0.20;;;0.20;;
17943;SDS011;9097;47.028;15.444;2022-08-21T00:18:49;0.45;;;0.30;;
17943;SDS011;9097;47.028;15.444;2022-08-21T00:21:52;0.52;;;0.40;;
17943;SDS011;9097;47.028;15.444;2022-08-21T00:24:54;0.22;;;0.22;;
17943;SDS011;9097;47.028;15.444;2022-08-21T00:27:57;0.77;;;0.50;;
17943;SDS011;9097;47.028;15.444;2022-08-21T00:30:59;0.40;;;0.30;;
17943;SDS011;9097;47.028;15.444;2022-08-21T00:34:05;0.40;;;0.32;;
17943;SDS011;9097;47.028;15.444;2022-08-21T00:37:08;0.82;;;0.40;;
17943;SDS011;9097;47.028;15.444;2022-08-21T00:40:11;0.50;;;0.38;;
17943;SDS011;9097;47.028;15.444;2022-08-21T00:43:16;0.50;;;0.30;;
17943;SDS011;9097;47.028;15.444;2022-08-21T00:46:19;2.50;;;0.50;;
17943;SDS011;9097;47.028;15.444;2022-08-21T00:49:23;0.40;;;0.40;;
17943;SDS011;9097;47.028;15.444;2022-08-21T00:52:27;1.17;;;0.60;;
17943;SDS011;9097;47.028;15.444;2022-08-21T00:55:30;0.35;;;0.35;;
17943;SDS011;9097;47.028;15.444;2022-08-21T00:58:33;0.20;;;0.20;;
17943;SDS011;9097;47.028;15.444;2022-08-21T01:01:36;0.30;;;0.30;;
17943;SDS011;9097;47.028;15.444;2022-08-21T01:04:40;0.65;;;0.63;;
17943;SDS011;9097;47.028;15.444;2022-08-21T01:07:43;0.70;;;0.65;;
17943;SDS011;9097;47.028;15.444;2022-08-21T01:10:46;0.70;;;0.30;;
17943;SDS011;9097;47.028;15.444;2022-08-21T01:13:49;0.82;;;0.38;;
17943;SDS011;9097;47.028;15.444;2022-08-21T01:16:53;0.50;;;0.30;;
17943;SDS011;9097;47.028;15.444;2022-08-21T01:19:58;0.50;;;0.30;;
17943;SDS011;9097;47.028;15.444;2022-08-21T01:23:03;0.52;;;0.50;;
17943;SDS011;9097;47.028;15.444;2022-08-21T01:26:06;0.45;;;0.45;;
17943;SDS011;9097;47.028;15.444;2022-08-21T01:29:11;0.80;;;0.40;;
17943;SDS011;9097;47.028;15.444;2022-08-21T01:32:16;0.43;;;0.13;;
17943;SDS011;9097;47.028;15.444;2022-08-21T01:35:19;0.50;;;0.40;;
17943;SDS011;9097;47.028;15.444;2022-08-21T01:38:24;1.48;;;0.60;;
17943;SDS011;9097;47.028;15.444;2022-08-21T01:41:26;0.90;;;0.35;;
17943;SDS011;9097;47.028;15.444;2022-08-21T01:44:29;0.40;;;0.40;;
17943;SDS011;9097;47.028;15.444;2022-08-21T01:47:33;0.57;;;0.45;;
17943;SDS011;9097;47.028;15.444;2022-08-21T01:50:36;0.55;;;0.52;;
17943;SDS011;9097;47.028;15.444;2022-08-21T01:53:40;0.95;;;0.75;;
17943;SDS011;9097;47.028;15.444;2022-08-21T01:56:43;0.20;;;0.20;;
17943;SDS011;9097;47.028;15.444;2022-08-21T01:59:46;0.60;;;0.60;;
17943;SDS011;9097;47.028;15.444;2022-08-21T02:02:49;0.77;;;0.60;;
17943;SDS011;9097;47.028;15.444;2022-08-21T02:05:51;0.30;;;0.30;;
17943;SDS011;9097;47.028;15.444;2022-08-21T02:08:55;0.38;;;0.38;;
17943;SDS011;9097;47.028;15.444;2022-08-21T02:11:58;0.45;;;0.45;;
17943;SDS011;9097;47.028;15.444;2022-08-21T02:15:01;0.70;;;0.47;;
17943;SDS011;9097;47.028;15.444;2022-08-21T02:18:04;0.88;;;0.40;;
17943;SDS011;9097;47.028;15.444;2022-08-21T02:21:07;0.30;;;0.30;;
17943;SDS011;9097;47.028;15.444;2022-08-21T02:24:11;0.55;;;0.55;;
17943;SDS011;9097;47.028;15.444;2022-08-21T02:27:14;0.43;;;0.38;;
17943;SDS011;9097;47.028;15.444;2022-08-21T02:30:17;1.23;;;0.40;;
17943;SDS011;9097;47.028;15.444;2022-08-21T02:33:21;1.95;;;0.38;;
17943;SDS011;9097;47.028;15.444;2022-08-21T02:36:24;0.95;;;0.77;;
17943;SDS011;9097;47.028;15.444;2022-08-21T02:39:29;0.90;;;0.30;;
17943;SDS011;9097;47.028;15.444;2022-08-21T02:42:32;0.55;;;0.40;;
17943;SDS011;9097;47.028;15.444;2022-08-21T02:45:36;0.75;;;0.70;;
17943;SDS011;9097;47.028;15.444;2022-08-21T02:48:39;0.80;;;0.35;;
17943;SDS011;9097;47.028;15.444;2022-08-21T02:51:41;0.32;;;0.32;;
17943;SDS011;9097;47.028;15.444;2022-08-21T02:54:46;0.57;;;0.30;;
17943;SDS011;9097;47.028;15.444;2022-08-21T02:57:48;0.65;;;0.50;;
17943;SDS011;9097;47.028;15.444;2022-08-21T03:00:51;0.73;;;0.40;;
17943;SDS011;9097;47.028;15.444;2022-08-21T03:03:54;0.70;;;0.40;;
17943;SDS011;9097;47.028;15.444;2022-08-21T03:06:57;0.47;;;0.45;;
17943;SDS011;9097;47.028;15.444;2022-08-21T03:10:01;0.50;;;0.50;;
17943;SDS011;9097;47.028;15.444;2022-08-21T03:13:04;0.50;;;0.40;;
17943;SDS011;9097;47.028;15.444;2022-08-21T03:16:06;0.38;;;0.38;;
17943;SDS011;9097;47.028;15.444;2022-08-21T03:19:09;1.30;;;0.80;;
17943;SDS011;9097;47.028;15.444;2022-08-21T03:22:12;0.32;;;0.30;;
17943;SDS011;9097;47.028;15.444;2022-08-21T03:25:16;1.90;;;0.70;;
17943;SDS011;9097;47.028;15.444;2022-08-21T03:28:20;2.38;;;0.70;;
17943;SDS011;9097;47.028;15.444;2022-08-21T03:31:23;1.08;;;0.55;;
17943;SDS011;9097;47.028;15.444;2022-08-21T03:34:29;0.70;;;0.68;;
17943;SDS011;9097;47.028;15.444;2022-08-21T03:37:31;1.08;;;0.80;;
17943;SDS011;9097;47.028;15.444;2022-08-21T03:40:35;0.63;;;0.55;;
17943;SDS011;9097;47.028;15.444;2022-08-21T03:43:38;0.95;;;0.60;;
17943;SDS011;9097;47.028;15.444;2022-08-21T03:46:41;0.57;;;0.57;;
17943;SDS011;9097;47.028;15.444;2022-08-21T03:49:43;2.20;;;0.70;;
17943;SDS011;9097;47.028;15.444;2022-08-21T03:52:46;0.65;;;0.43;;
17943;SDS011;9097;47.028;15.444;2022-08-21T03:55:50;1.27;;;0.77;;
17943;SDS011;9097;47.028;15.444;2022-08-21T03:58:53;1.02;;;0.90;;
17943;SDS011;9097;47.028;15.444;2022-08-21T04:01:56;0.70;;;0.68;;
17943;SDS011;9097;47.028;15.444;2022-08-21T04:04:59;1.65;;;0.93;;
17943;SDS011;9097;47.028;15.444;2022-08-21T04:08:02;0.65;;;0.50;;
17943;SDS011;9097;47.028;15.444;2022-08-21T04:11:07;1.52;;;0.80;;
17943;SDS011;9097;47.028;15.444;2022-08-21T04:14:10;0.85;;;0.75;;
17943;SDS011;9097;47.028;15.444;2022-08-21T04:17:13;1.65;;;0.85;;
17943;SDS011;9097;47.028;15.444;2022-08-21T04:20:16;1.15;;;0.82;;
17943;SDS011;9097;47.028;15.444;2022-08-21T04:23:19;0.93;;;0.75;;
17943;SDS011;9097;47.028;15.444;2022-08-21T04:26:23;0.70;;;0.60;;
17943;SDS011;9097;47.028;15.444;2022-08-21T04:29:26;1.15;;;0.77;;
17943;SDS011;9097;47.028;15.444;2022-08-21T04:32:28;0.65;;;0.52;;
17943;SDS011;9097;47.028;15.444;2022-08-21T04:35:31;0.32;;;0.32;;
17943;SDS011;9097;47.028;15.444;2022-08-21T04:38:34;2.42;;;0.85;;
17943;SDS011;9097;47.028;15.444;2022-08-21T04:41:38;1.50;;;0.60;;
17943;SDS011;9097;47.028;15.444;2022-08-21T04:44:41;1.55;;;0.82;;
17943;SDS011;9097;47.028;15.444;2022-08-21T04:47:44;1.52;;;0.98;;
17943;SDS011;9097;47.028;15.444;2022-08-21T04:50:49;0.57;;;0.57;;
17943;SDS011;9097;47.028;15.444;2022-08-21T04:53:53;0.73;;;0.65;;
17943;SDS011;9097;47.028;15.444;2022-08-21T04:56:59;1.35;;;0.80;;
17943;SDS011;9097;47.028;15.444;2022-08-21T05:00:06;1.00;;;0.73;;
17943;SDS011;9097;47.028;15.444;2022-08-21T05:03:10;0.80;;;0.80;;
17943;SDS011;9097;47.028;15.444;2022-08-21T05:06:15;0.73;;;0.70;;
17943;SDS011;9097;47.028;15.444;2022-08-21T05:09:18;0.85;;;0.60;;
17943;SDS011;9097;47.028;15.444;2022-08-21T05:12:23;1.92;;;1.00;;
17943;SDS011;9097;47.028;15.444;2022-08-21T05:15:25;0.43;;;0.40;;
17943;SDS011;9097;47.028;15.444;2022-08-21T05:18:28;2.05;;;1.20;;
17943;SDS011;9097;47.028;15.444;2022-08-21T05:21:30;3.67;;;1.13;;
17943;SDS011;9097;47.028;15.444;2022-08-21T05:24:33;0.50;;;0.40;;
17943;SDS011;9097;47.028;15.444;2022-08-21T05:27:37;1.05;;;0.65;;
17943;SDS011;9097;47.028;15.444;2022-08-21T05:30:40;1.05;;;0.85;;
17943;SDS011;9097;47.028;15.444;2022-08-21T05:33:43;1.52;;;1.20;;
17943;SDS011;9097;47.028;15.444;2022-08-21T05:36:45;3.33;;;1.02;;
17943;SDS011;9097;47.028;15.444;2022-08-21T05:39:48;0.70;;;0.70;;
17943;SDS011;9097;47.028;15.444;2022-08-21T05:42:52;0.88;;;0.82;;
17943;SDS011;9097;47.028;15.444;2022-08-21T05:45:55;0.70;;;0.60;;
17943;SDS011;9097;47.028;15.444;2022-08-21T05:48:57;1.50;;;1.23;;
17943;SDS011;9097;47.028;15.444;2022-08-21T05:52:00;0.70;;;0.70;;
17943;SDS011;9097;47.028;15.444;2022-08-21T05:55:03;2.22;;;0.77;;
17943;SDS011;9097;47.028;15.444;2022-08-21T05:58:07;0.70;;;0.70;;
17943;SDS011;9097;47.028;15.444;2022-08-21T06:01:10;1.05;;;0.95;;
17943;SDS011;9097;47.028;15.444;2022-08-21T06:04:14;0.80;;;0.52;;
17943;SDS011;9097;47.028;15.444;2022-08-21T06:07:17;0.50;;;0.50;;
17943;SDS011;9097;47.028;15.444;2022-08-21T06:10:20;0.63;;;0.52;;
17943;SDS011;9097;47.028;15.444;2022-08-21T06:13:24;1.88;;;0.88;;
17943;SDS011;9097;47.028;15.444;2022-08-21T06:16:28;1.63;;;0.98;;
17943;SDS011;9097;47.028;15.444;2022-08-21T06:19:30;0.60;;;0.60;;
17943;SDS011;9097;47.028;15.444;2022-08-21T06:22:33;0.50;;;0.50;;
17943;SDS011;9097;47.028;15.444;2022-08-21T06:25:36;1.75;;;0.80;;
17943;SDS011;9097;47.028;15.444;2022-08-21T06:28:40;0.50;;;0.43;;
17943;SDS011;9097;47.028;15.444;2022-08-21T06:31:43;0.77;;;0.60;;
17943;SDS011;9097;47.028;15.444;2022-08-21T06:34:47;0.80;;;0.75;;
17943;SDS011;9097;47.028;15.444;2022-08-21T06:37:49;1.67;;;0.95;;
17943;SDS011;9097;47.028;15.444;2022-08-21T06:40:52;0.65;;;0.50;;
17943;SDS011;9097;47.028;15.444;2022-08-21T06:43:56;1.30;;;0.85;;
17943;SDS011;9097;47.028;15.444;2022-08-21T06:46:59;0.80;;;0.80;;
17943;SDS011;9097;47.028;15.444;2022-08-21T06:50:01;1.27;;;0.65;;
17943;SDS011;9097;47.028;15.444;2022-08-21T06:53:05;0.88;;;0.65;;
17943;SDS011;9097;47.028;15.444;2022-08-21T06:56:08;1.75;;;0.93;;
17943;SDS011;9097;47.028;15.444;2022-08-21T06:59:12;0.98;;;0.70;;
17943;SDS011;9097;47.028;15.444;2022-08-21T07:02:15;0.63;;;0.63;;
17943;SDS011;9097;47.028;15.444;2022-08-21T07:05:18;0.55;;;0.55;;
17943;SDS011;9097;47.028;15.444;2022-08-21T07:08:20;0.60;;;0.50;;
17943;SDS011;9097;47.028;15.444;2022-08-21T07:11:23;0.85;;;0.50;;
17943;SDS011;9097;47.028;15.444;2022-08-21T07:14:27;0.85;;;0.65;;
17943;SDS011;9097;47.028;15.444;2022-08-21T07:17:30;0.70;;;0.50;;
17943;SDS011;9097;47.028;15.444;2022-08-21T07:20:33;1.48;;;0.77;;
17943;SDS011;9097;47.028;15.444;2022-08-21T07:23:36;0.70;;;0.70;;
17943;SDS011;9097;47.028;15.444;2022-08-21T07:26:39;0.47;;;0.32;;
17943;SDS011;9097;47.028;15.444;2022-08-21T07:29:43;0.77;;;0.65;;
17943;SDS011;9097;47.028;15.444;2022-08-21T07:32:46;3.92;;;0.70;;
17943;SDS011;9097;47.028;15.444;2022-08-21T07:35:50;0.50;;;0.40;;
17943;SDS011;9097;47.028;15.444;2022-08-21T07:38:52;0.80;;;0.70;;
17943;SDS011;9097;47.028;15.444;2022-08-21T07:41:55;0.70;;;0.68;;
17943;SDS011;9097;47.028;15.444;2022-08-21T07:44:59;1.08;;;0.50;;
17943;SDS011;9097;47.028;15.444;2022-08-21T07:48:02;1.00;;;0.68;;
17943;SDS011;9097;47.028;15.444;2022-08-21T07:51:06;0.82;;;0.50;;
17943;SDS011;9097;47.028;15.444;2022-08-21T07:54:08;1.10;;;0.65;;
17943;SDS011;9097;47.028;15.444;2022-08-21T07:57:14;0.40;;;0.40;;
17943;SDS011;9097;47.028;15.444;2022-08-21T08:00:19;0.88;;;0.63;;
17943;SDS011;9097;47.028;15.444;2022-08-21T08:03:22;1.20;;;1.00;;
17943;SDS011;9097;47.028;15.444;2022-08-21T08:06:24;0.50;;;0.50;;
17943;SDS011;9097;47.028;15.444;2022-08-21T08:09:28;0.88;;;0.88;;
17943;SDS011;9097;47.028;15.444;2022-08-21T08:12:30;0.57;;;0.40;;
17943;SDS011;9097;47.028;15.444;2022-08-21T08:15:35;0.85;;;0.57;;
17943;SDS011;9097;47.028;15.444;2022-08-21T08:18:38;0.88;;;0.77;;
17943;SDS011;9097;47.028;15.444;2022-08-21T08:21:42;0.47;;;0.40;;
17943;SDS011;9097;47.028;15.444;2022-08-21T08:24:44;1.02;;;0.55;;
17943;SDS011;9097;47.028;15.444;2022-08-21T08:27:47;2.85;;;0.80;;
17943;SDS011;9097;47.028;15.444;2022-08-21T08:30:51;0.55;;;0.52;;
17943;SDS011;9097;47.028;15.444;2022-08-21T08:33:54;0.90;;;0.60;;
17943;SDS011;9097;47.028;15.444;2022-08-21T08:36:57;1.50;;;0.70;;
17943;SDS011;9097;47.028;15.444;2022-08-21T08:40:00;0.80;;;0.50;;
17943;SDS011;9097;47.028;15.444;2022-08-21T08:43:02;1.55;;;0.75;;
17943;SDS011;9097;47.028;15.444;2022-08-21T08:46:09;0.50;;;0.32;;
17943;SDS011;9097;47.028;15.444;2022-08-21T08:49:15;0.73;;;0.40;;
17943;SDS011;9097;47.028;15.444;2022-08-21T08:52:20;0.90;;;0.60;;
17943;SDS011;9097;47.028;15.444;2022-08-21T08:55:26;0.43;;;0.40;;
17943;SDS011;9097;47.028;15.444;2022-08-21T08:58:31;0.60;;;0.50;;
17943;SDS011;9097;47.028;15.444;2022-08-21T09:01:36;0.63;;;0.43;;
17943;SDS011;9097;47.028;15.444;2022-08-21T09:04:39;0.88;;;0.60;;
17943;SDS011;9097;47.028;15.444;2022-08-21T09:07:44;0.30;;;0.30;;
17943;SDS011;9097;47.028;15.444;2022-08-21T09:10:51;0.38;;;0.35;;
17943;SDS011;9097;47.028;15.444;2022-08-21T09:14:01;0.73;;;0.40;;
17943;SDS011;9097;47.028;15.444;2022-08-21T09:17:09;0.63;;;0.43;;
17943;SDS011;9097;47.028;15.444;2022-08-21T09:20:17;0.30;;;0.30;;
17943;SDS011;9097;47.028;15.444;2022-08-21T09:23:22;0.38;;;0.30;;
17943;SDS011;9097;47.028;15.444;2022-08-21T09:26:30;0.93;;;0.45;;
17943;SDS011;9097;47.028;15.444;2022-08-21T09:29:34;0.85;;;0.60;;
17943;SDS011;9097;47.028;15.444;2022-08-21T09:32:38;0.43;;;0.32;;
17943;SDS011;9097;47.028;15.444;2022-08-21T09:35:48;0.60;;;0.60;;
17943;SDS011;9097;47.028;15.444;2022-08-21T09:38:51;0.47;;;0.30;;
17943;SDS011;9097;47.028;15.444;2022-08-21T09:41:56;0.80;;;0.60;;
17943;SDS011;9097;47.028;15.444;2022-08-21T09:45:09;1.00;;;0.45;;
17943;SDS011;9097;47.028;15.444;2022-08-21T09:48:14;0.95;;;0.47;;
17943;SDS011;9097;47.028;15.444;2022-08-21T09:51:18;0.52;;;0.20;;
17943;SDS011;9097;47.028;15.444;2022-08-21T09:54:21;0.77;;;0.50;;
17943;SDS011;9097;47.028;15.444;2022-08-21T09:57:28;0.73;;;0.57;;
17943;SDS011;9097;47.028;15.444;2022-08-21T10:00:39;0.77;;;0.52;;
17943;SDS011;9097;47.028;15.444;2022-08-21T10:03:44;0.82;;;0.57;;
17943;SDS011;9097;47.028;15.444;2022-08-21T10:06:46;1.35;;;0.65;;
17943;SDS011;9097;47.028;15.444;2022-08-21T10:09:57;0.50;;;0.50;;
17943;SDS011;9097;47.028;15.444;2022-08-21T10:13:01;0.47;;;0.40;;
17943;SDS011;9097;47.028;15.444;2022-08-21T10:16:10;0.65;;;0.60;;
17943;SDS011;9097;47.028;15.444;2022-08-21T10:19:18;0.30;;;0.30;;
17943;SDS011;9097;47.028;15.444;2022-08-21T10:22:27;0.52;;;0.47;;
17943;SDS011;9097;47.028;15.444;2022-08-21T10:25:32;0.32;;;0.32;;
17943;SDS011;9097;47.028;15.444;2022-08-21T10:28:36;1.42;;;0.45;;
17943;SDS011;9097;47.028;15.444;2022-08-21T10:31:43;0.57;;;0.50;;
17943;SDS011;9097;47.028;15.444;2022-08-21T10:34:51;0.35;;;0.35;;
17943;SDS011;9097;47.028;15.444;2022-08-21T10:38:02;1.42;;;0.77;;
17943;SDS011;9097;47.028;15.444;2022-08-21T10:41:10;0.95;;;0.40;;
17943;SDS011;9097;47.028;15.444;2022-08-21T10:44:20;1.15;;;0.55;;
17943;SDS011;9097;47.028;15.444;2022-08-21T10:47:28;0.73;;;0.50;;
17943;SDS011;9097;47.028;15.444;2022-08-21T10:50:36;0.57;;;0.50;;
17943;SDS011;9097;47.028;15.444;2022-08-21T10:53:45;1.08;;;0.68;;
17943;SDS011;9097;47.028;15.444;2022-08-21T10:56:50;3.22;;;0.40;;
17943;SDS011;9097;47.028;15.444;2022-08-21T10:59:55;0.60;;;0.55;;
17943;SDS011;9097;47.028;15.444;2022-08-21T11:03:01;0.35;;;0.35;;
17943;SDS011;9097;47.028;15.444;2022-08-21T11:06:08;0.35;;;0.35;;
17943;SDS011;9097;47.028;15.444;2022-08-21T11:09:13;1.13;;;0.73;;
17943;SDS011;9097;47.028;15.444;2022-08-21T11:12:19;0.45;;;0.40;;
17943;SDS011;9097;47.028;15.444;2022-08-21T11:15:36;1.20;;;0.60;;
17943;SDS011;9097;47.028;15.444;2022-08-21T11:18:41;0.93;;;0.30;;
17943;SDS011;9097;47.028;15.444;2022-08-21T11:21:47;0.55;;;0.32;;
17943;SDS011;9097;47.028;15.444;2022-08-21T11:24:52;0.40;;;0.30;;
17943;SDS011;9097;47.028;15.444;2022-08-21T11:27:58;0.32;;;0.22;;
17943;SDS011;9097;47.028;15.444;2022-08-21T11:31:04;0.35;;;0.30;;
17943;SDS011;9097;47.028;15.444;2022-08-21T11:34:12;0.20;;;0.20;;
17943;SDS011;9097;47.028;15.444;2022-08-21T11:37:21;0.10;;;0.10;;
17943;SDS011;9097;47.028;15.444;2022-08-21T11:40:31;0.20;;;0.20;;
17943;SDS011;9097;47.028;15.444;2022-08-21T11:43:37;0.15;;;0.15;;
17943;SDS011;9097;47.028;15.444;2022-08-21T11:46:44;0.90;;;0.20;;
17943;SDS011;9097;47.028;15.444;2022-08-21T11:49:53;0.68;;;0.50;;
17943;SDS011;9097;47.028;15.444;2022-08-21T11:53:01;0.73;;;0.30;;
17943;SDS011;9097;47.028;15.444;2022-08-21T11:56:07;0.52;;;0.30;;
17943;SDS011;9097;47.028;15.444;2022-08-21T11:59:13;0.52;;;0.30;;
17943;SDS011;9097;47.028;15.444;2022-08-21T12:02:21;0.15;;;0.15;;
17943;SDS011;9097;47.028;15.444;2022-08-21T12:05:27;0.20;;;0.20;;
17943;SDS011;9097;47.028;15.444;2022-08-21T12:08:34;0.10;;;0.10;;
17943;SDS011;9097;47.028;15.444;2022-08-21T12:11:45;0.13;;;0.10;;
17943;SDS011;9097;47.028;15.444;2022-08-21T12:14:48;0.10;;;0.10;;
17943;SDS011;9097;47.028;15.444;2022-08-21T12:17:52;0.25;;;0.17;;
17943;SDS011;9097;47.028;15.444;2022-08-21T12:21:02;0.30;;;0.20;;
17943;SDS011;9097;47.028;15.444;2022-08-21T12:24:15;0.00;;;0.00;;
17943;SDS011;9097;47.028;15.444;2022-08-21T12:27:20;0.10;;;0.10;;
17943;SDS011;9097;47.028;15.444;2022-08-21T12:30:32;0.20;;;0.10;;
17943;SDS011;9097;47.028;15.444;2022-08-21T12:33:37;0.30;;;0.17;;
17943;SDS011;9097;47.028;15.444;2022-08-21T12:36:43;0.20;;;0.20;;
17943;SDS011;9097;47.028;15.444;2022-08-21T12:39:49;0.20;;;0.13;;
17943;SDS011;9097;47.028;15.444;2022-08-21T12:42:53;0.63;;;0.10;;
17943;SDS011;9097;47.028;15.444;2022-08-21T12:45:56;0.10;;;0.10;;
17943;SDS011;9097;47.028;15.444;2022-08-21T12:49:07;0.20;;;0.10;;
17943;SDS011;9097;47.028;15.444;2022-08-21T12:52:11;0.10;;;0.10;;
17943;SDS011;9097;47.028;15.444;2022-08-21T12:55:25;0.10;;;0.10;;
17943;SDS011;9097;47.028;15.444;2022-08-21T12:58:28;0.30;;;0.30;;
17943;SDS011;9097;47.028;15.444;2022-08-21T13:01:31;0.20;;;0.03;;
17943;SDS011;9097;47.028;15.444;2022-08-21T13:04:36;0.20;;;0.20;;
17943;SDS011;9097;47.028;15.444;2022-08-21T13:07:43;0.10;;;0.10;;
17943;SDS011;9097;47.028;15.444;2022-08-21T13:10:49;0.20;;;0.10;;
17943;SDS011;9097;47.028;15.444;2022-08-21T13:13:52;0.20;;;0.20;;
17943;SDS011;9097;47.028;15.444;2022-08-21T13:16:55;0.20;;;0.10;;
17943;SDS011;9097;47.028;15.444;2022-08-21T13:19:58;0.55;;;0.40;;
17943;SDS011;9097;47.028;15.444;2022-08-21T13:23:02;0.00;;;0.00;;
17943;SDS011;9097;47.028;15.444;2022-08-21T13:26:13;0.00;;;0.00;;
17943;SDS011;9097;47.028;15.444;2022-08-21T13:29:16;0.20;;;0.20;;
17943;SDS011;9097;47.028;15.444;2022-08-21T13:32:21;0.10;;;0.00;;
17943;SDS011;9097;47.028;15.444;2022-08-21T13:35:25;0.13;;;0.08;;
17943;SDS011;9097;47.028;15.444;2022-08-21T13:38:30;0.10;;;0.10;;
17943;SDS011;9097;47.028;15.444;2022-08-21T13:41:35;0.20;;;0.20;;
17943;SDS011;9097;47.028;15.444;2022-08-21T13:44:40;0.10;;;0.10;;
17943;SDS011;9097;47.028;15.444;2022-08-21T13:47:45;0.00;;;0.00;;
17943;SDS011;9097;47.028;15.444;2022-08-21T13:50:49;0.10;;;0.10;;
17943;SDS011;9097;47.028;15.444;2022-08-21T13:53:52;0.00;;;0.00;;
17943;SDS011;9097;47.028;15.444;2022-08-21T13:56:57;0.20;;;0.20;;
17943;SDS011;9097;47.028;15.444;2022-08-21T14:00:10;0.10;;;0.10;;
17943;SDS011;9097;47.028;15.444;2022-08-21T14:03:15;0.00;;;0.00;;
17943;SDS011;9097;47.028;15.444;2022-08-21T14:06:26;0.03;;;0.03;;
17943;SDS011;9097;47.028;15.444;2022-08-21T14:09:30;0.10;;;0.03;;
17943;SDS011;9097;47.028;15.444;2022-08-21T14:12:36;0.20;;;0.20;;
17943;SDS011;9097;47.028;15.444;2022-08-21T14:15:40;0.30;;;0.30;;
17943;SDS011;9097;47.028;15.444;2022-08-21T14:18:47;0.20;;;0.20;;
17943;SDS011;9097;47.028;15.444;2022-08-21T14:21:50;0.70;;;0.20;;
17943;SDS011;9097;47.028;15.444;2022-08-21T14:24:58;0.10;;;0.10;;
17943;SDS011;9097;47.028;15.444;2022-08-21T14:28:05;0.00;;;0.00;;
17943;SDS011;9097;47.028;15.444;2022-08-21T14:31:12;0.00;;;0.00;;
17943;SDS011;9097;47.028;15.444;2022-08-21T14:34:15;0.30;;;0.20;;
17943;SDS011;9097;47.028;15.444;2022-08-21T14:37:18;0.13;;;0.13;;
17943;SDS011;9097;47.028;15.444;2022-08-21T14:40:22;0.25;;;0.20;;
17943;SDS011;9097;47.028;15.444;2022-08-21T14:43:26;0.45;;;0.20;;
17943;SDS011;9097;47.028;15.444;2022-08-21T14:46:29;0.20;;;0.20;;
17943;SDS011;9097;47.028;15.444;2022-08-21T14:49:34;0.20;;;0.20;;
17943;SDS011;9097;47.028;15.444;2022-08-21T14:52:37;0.20;;;0.20;;
17943;SDS011;9097;47.028;15.444;2022-08-21T14:55:39;0.17;;;0.15;;
17943;SDS011;9097;47.028;15.444;2022-08-21T14:59:02;0.20;;;0.20;;
17943;SDS011;9097;47.028;15.444;2022-08-21T15:02:05;0.50;;;0.40;;
17943;SDS011;9097;47.028;15.444;2022-08-21T15:05:08;0.85;;;0.30;;
17943;SDS011;9097;47.028;15.444;2022-08-21T15:08:10;0.13;;;0.13;;
17943;SDS011;9097;47.028;15.444;2022-08-21T15:11:15;0.35;;;0.20;;
17943;SDS011;9097;47.028;15.444;2022-08-21T15:14:20;0.70;;;0.65;;
17943;SDS011;9097;47.028;15.444;2022-08-21T15:17:23;0.52;;;0.47;;
17943;SDS011;9097;47.028;15.444;2022-08-21T15:20:26;0.57;;;0.50;;
17943;SDS011;9097;47.028;15.444;2022-08-21T15:23:28;0.35;;;0.28;;
17943;SDS011;9097;47.028;15.444;2022-08-21T15:26:31;0.25;;;0.25;;
17943;SDS011;9097;47.028;15.444;2022-08-21T15:29:35;0.45;;;0.45;;
17943;SDS011;9097;47.028;15.444;2022-08-21T15:32:38;0.73;;;0.55;;
17943;SDS011;9097;47.028;15.444;2022-08-21T15:35:41;0.73;;;0.68;;
17943;SDS011;9097;47.028;15.444;2022-08-21T15:38:45;0.77;;;0.50;;
17943;SDS011;9097;47.028;15.444;2022-08-21T15:41:47;0.50;;;0.50;;
17943;SDS011;9097;47.028;15.444;2022-08-21T15:44:51;0.50;;;0.50;;
17943;SDS011;9097;47.028;15.444;2022-08-21T15:47:55;0.70;;;0.52;;
17943;SDS011;9097;47.028;15.444;2022-08-21T15:50:59;0.75;;;0.55;;
17943;SDS011;9097;47.028;15.444;2022-08-21T15:54:02;2.25;;;0.70;;
17943;SDS011;9097;47.028;15.444;2022-08-21T15:57:05;1.42;;;0.95;;
17943;SDS011;9097;47.028;15.444;2022-08-21T16:00:12;0.98;;;0.75;;
17943;SDS011;9097;47.028;15.444;2022-08-21T16:03:16;1.27;;;0.70;;
17943;SDS011;9097;47.028;15.444;2022-08-21T16:06:21;0.52;;;0.38;;
17943;SDS011;9097;47.028;15.444;2022-08-21T16:09:24;1.42;;;0.60;;
17943;SDS011;9097;47.028;15.444;2022-08-21T16:12:28;0.50;;;0.50;;
17943;SDS011;9097;47.028;15.444;2022-08-21T16:15:33;0.82;;;0.60;;
17943;SDS011;9097;47.028;15.444;2022-08-21T16:18:36;0.70;;;0.60;;
17943;SDS011;9097;47.028;15.444;2022-08-21T16:21:39;1.27;;;0.85;;
17943;SDS011;9097;47.028;15.444;2022-08-21T16:24:41;0.55;;;0.55;;
17943;SDS011;9097;47.028;15.444;2022-08-21T16:27:45;0.82;;;0.80;;
17943;SDS011;9097;47.028;15.444;2022-08-21T16:30:49;0.98;;;0.90;;
17943;SDS011;9097;47.028;15.444;2022-08-21T16:33:52;0.55;;;0.55;;
17943;SDS011;9097;47.028;15.444;2022-08-21T16:36:56;2.22;;;0.80;;
17943;SDS011;9097;47.028;15.444;2022-08-21T16:39:59;1.38;;;0.70;;
17943;SDS011;9097;47.028;15.444;2022-08-21T16:43:01;2.15;;;0.70;;
17943;SDS011;9097;47.028;15.444;2022-08-21T16:46:05;1.17;;;0.93;;
17943;SDS011;9097;47.028;15.444;2022-08-21T16:49:09;0.68;;;0.60;;
17943;SDS011;9097;47.028;15.444;2022-08-21T16:52:12;0.75;;;0.75;;
17943;SDS011;9097;47.028;15.444;2022-08-21T16:55:15;0.75;;;0.75;;
17943;SDS011;9097;47.028;15.444;2022-08-21T16:58:20;1.20;;;0.88;;
17943;SDS011;9097;47.028;15.444;2022-08-21T17:01:26;0.73;;;0.55;;
17943;SDS011;9097;47.028;15.444;2022-08-21T17:04:29;0.93;;;0.85;;
17943;SDS011;9097;47.028;15.444;2022-08-21T17:07:32;1.35;;;0.80;;
17943;SDS011;9097;47.028;15.444;2022-08-21T17:10:35;1.30;;;0.90;;
17943;SDS011;9097;47.028;15.444;2022-08-21T17:13:38;0.98;;;0.60;;
17943;SDS011;9097;47.028;15.444;2022-08-21T17:16:43;1.02;;;0.80;;
17943;SDS011;9097;47.028;15.444;2022-08-21T17:19:46;3.85;;;1.77;;
17943;SDS011;9097;47.028;15.444;2022-08-21T17:22:48;1.10;;;0.80;;
17943;SDS011;9097;47.028;15.444;2022-08-21T17:25:51;0.50;;;0.45;;
17943;SDS011;9097;47.028;15.444;2022-08-21T17:28:56;1.02;;;0.90;;
17943;SDS011;9097;47.028;15.444;2022-08-21T17:32:00;1.92;;;1.20;;
17943;SDS011;9097;47.028;15.444;2022-08-21T17:35:05;1.25;;;0.80;;
17943;SDS011;9097;47.028;15.444;2022-08-21T17:38:08;1.05;;;0.90;;
17943;SDS011;9097;47.028;15.444;2022-08-21T17:41:12;1.33;;;0.82;;
17943;SDS011;9097;47.028;15.444;2022-08-21T17:44:15;1.05;;;0.80;;
17943;SDS011;9097;47.028;15.444;2022-08-21T17:47:20;0.75;;;0.63;;
17943;SDS011;9097;47.028;15.444;2022-08-21T17:50:23;2.65;;;1.02;;
17943;SDS011;9097;47.028;15.444;2022-08-21T17:53:25;1.08;;;1.00;;
17943;SDS011;9097;47.028;15.444;2022-08-21T17:56:31;1.88;;;1.17;;
17943;SDS011;9097;47.028;15.444;2022-08-21T17:59:34;1.05;;;0.95;;
17943;SDS011;9097;47.028;15.444;2022-08-21T18:02:39;0.65;;;0.65;;
17943;SDS011;9097;47.028;15.444;2022-08-21T18:05:44;2.05;;;1.10;;
17943;SDS011;9097;47.028;15.444;2022-08-21T18:08:48;1.20;;;0.82;;
17943;SDS011;9097;47.028;15.444;2022-08-21T18:11:51;2.75;;;1.25;;
17943;SDS011;9097;47.028;15.444;2022-08-21T18:14:54;1.08;;;0.70;;
17943;SDS011;9097;47.028;15.444;2022-08-21T18:17:59;0.57;;;0.57;;
17943;SDS011;9097;47.028;15.444;2022-08-21T18:21:02;1.05;;;0.80;;
17943;SDS011;9097;47.028;15.444;2022-08-21T18:24:04;1.70;;;0.90;;
17943;SDS011;9097;47.028;15.444;2022-08-21T18:27:07;2.88;;;1.25;;
17943;SDS011;9097;47.028;15.444;2022-08-21T18:30:11;1.85;;;0.95;;